Time;durP1;ratioP1;P1;durP2;ratioP2;P2;SDS_P1;SDS_P2;PMS_P1;PMS_P2;Temp;Humidity;BMP_temperature;BMP_pressure;BME280_temperature;BME280_humidity;BME280_pressure;Samples;Min_cycle;Max_cycle;Signal;HPM_P1;HPM_P2
2022/09/28 00:01:05;;;;;;;1999.90;999.90;;;9.20;99.90;;;;;;5049975;28;20444;-61
2022/09/28 00:03:33;;;;;;;1999.90;999.90;;;9.20;99.90;;;;;;5050351;28;20439;-62
2022/09/28 00:06:04;;;;;;;1999.90;999.90;;;9.20;99.90;;;;;;5050358;28;20444;-62
2022/09/28 00:08:31;;;;;;;1999.90;999.90;;;9.20;99.90;;;;;;5050206;28;20472;-65
2022/09/28 00:10:58;;;;;;;1999.90;999.90;;;9.20;99.90;;;;;;5050211;28;20531;-62
2022/09/28 00:13:25;;;;;;;1999.90;999.90;;;9.20;99.90;;;;;;5050007;28;20459;-60
2022/09/28 00:16:03;;;;;;;1999.90;999.90;;;9.30;99.90;;;;;;5050052;28;20451;-62
2022/09/28 00:18:31;;;;;;;1999.90;999.90;;;9.30;99.90;;;;;;5050058;28;20431;-63
2022/09/28 00:21:04;;;;;;;1999.90;999.90;;;9.30;99.90;;;;;;5049693;28;20436;-64
2022/09/28 00:23:31;;;;;;;1999.90;999.90;;;9.30;99.90;;;;;;5049985;28;20493;-62
2022/09/28 00:26:02;;;;;;;1999.90;999.90;;;9.30;99.90;;;;;;5050116;28;20444;-64
2022/09/28 00:28:30;;;;;;;1999.90;999.90;;;9.30;99.90;;;;;;5049818;28;20914;-57
2022/09/28 00:30:57;;;;;;;1999.90;999.90;;;9.30;99.90;;;;;;5049824;28;20480;-61
2022/09/28 00:33:24;;;;;;;1999.90;999.90;;;9.30;99.90;;;;;;5049325;28;20454;-64
2022/09/28 00:35:56;;;;;;;1999.90;999.90;;;9.30;99.90;;;;;;5049735;28;20812;-61
2022/09/28 00:38:26;;;;;;;1999.90;999.90;;;9.40;99.90;;;;;;5049725;28;20842;-62
2022/09/28 00:40:54;;;;;;;1999.90;999.90;;;9.30;99.90;;;;;;5049622;28;20451;-62
2022/09/28 00:43:22;;;;;;;1999.90;999.90;;;9.40;99.90;;;;;;5049279;28;20865;-59
2022/09/28 00:45:55;;;;;;;1999.90;999.90;;;9.40;99.90;;;;;;5049623;28;20444;-64
2022/09/28 00:48:23;;;;;;;1999.90;999.90;;;9.40;99.90;;;;;;5049616;28;20963;-61
2022/09/28 00:50:50;;;;;;;1999.90;999.90;;;9.40;99.90;;;;;;5049641;28;20440;-63
2022/09/28 00:53:20;;;;;;;1999.90;999.90;;;9.40;99.90;;;;;;5049297;28;20436;-65
2022/09/28 00:55:51;;;;;;;1999.90;999.90;;;9.40;99.90;;;;;;5049695;28;20440;-65
2022/09/28 00:58:23;;;;;;;1999.90;999.90;;;9.40;99.90;;;;;;5050643;28;20428;-63
2022/09/28 01:00:50;;;;;;;1999.90;999.90;;;9.40;99.90;;;;;;5053687;28;20926;-63
2022/09/28 01:03:18;;;;;;;1999.90;999.90;;;9.40;99.90;;;;;;5053348;28;20436;-61
2022/09/28 01:05:46;;;;;;;1999.90;999.90;;;9.40;99.90;;;;;;5053347;28;20463;-63
2022/09/28 01:08:14;;;;;;;1999.90;999.90;;;9.40;99.90;;;;;;5053367;28;20483;-65
2022/09/28 01:10:42;;;;;;;1999.90;999.90;;;9.40;99.90;;;;;;5053153;28;21020;-65
2022/09/28 01:13:11;;;;;;;1999.90;999.90;;;9.50;99.90;;;;;;5053397;28;20463;-66
2022/09/28 01:15:48;;;;;;;1999.90;999.90;;;9.40;99.90;;;;;;5071211;28;20451;-64
2022/09/28 01:18:19;;;;;;;1999.90;999.90;;;9.40;99.90;;;;;;5073697;28;20434;-64
2022/09/28 01:20:59;;;;;;;1999.90;999.90;;;9.50;99.90;;;;;;5073229;28;20796;-65
2022/09/28 01:24:08;;;;;;;1999.90;999.90;;;9.50;99.90;;;;;;5072962;28;20439;-64
2022/09/28 01:26:58;;;;;;;1999.90;999.90;;;9.50;99.90;;;;;;5073018;28;20457;-64
2022/09/28 01:29:37;;;;;;;1999.90;999.90;;;9.50;99.90;;;;;;5073121;28;20470;-65
2022/09/28 01:32:21;;;;;;;1999.90;999.90;;;9.50;99.90;;;;;;5072550;28;20445;-58
2022/09/28 01:34:56;;;;;;;1999.90;999.90;;;9.50;99.90;;;;;;5073037;28;20463;-63
2022/09/28 01:37:35;;;;;;;1999.90;999.90;;;9.60;99.90;;;;;;5072904;28;20435;-66
2022/09/28 01:40:04;;;;;;;1999.90;999.90;;;9.60;99.90;;;;;;5073015;28;20537;-65
2022/09/28 01:42:34;;;;;;;1999.90;999.90;;;9.60;99.90;;;;;;5072390;28;20940;-63
2022/09/28 01:45:07;;;;;;;1999.90;999.90;;;9.60;99.90;;;;;;5073187;28;20465;-65
2022/09/28 01:47:39;;;;;;;1999.90;999.90;;;9.60;99.90;;;;;;5072745;28;20928;-65
2022/09/28 01:50:11;;;;;;;1999.90;999.90;;;9.60;99.90;;;;;;5072907;28;20565;-66
2022/09/28 01:52:45;;;;;;;1999.90;999.90;;;9.60;99.90;;;;;;5072237;28;20431;-67
2022/09/28 01:55:17;;;;;;;1999.90;999.90;;;9.70;99.90;;;;;;5072654;28;20984;-66
2022/09/28 01:57:50;;;;;;;1999.90;999.90;;;9.70;99.90;;;;;;5072748;28;20439;-67
2022/09/28 02:00:19;;;;;;;1999.90;999.90;;;9.70;99.90;;;;;;5072671;28;20435;-63
2022/09/28 02:02:52;;;;;;;1999.90;999.90;;;9.70;99.90;;;;;;5072403;28;20780;-66
2022/09/28 02:05:22;;;;;;;1999.90;999.90;;;9.70;99.90;;;;;;5072462;28;20474;-64
2022/09/28 02:07:56;;;;;;;1999.90;999.90;;;9.70;99.90;;;;;;5072535;28;20450;-65
2022/09/28 02:10:28;;;;;;;1999.90;999.90;;;9.70;99.90;;;;;;5071711;28;20483;-64
2022/09/28 02:13:02;;;;;;;1999.90;999.90;;;9.70;99.90;;;;;;5072254;28;20473;-65
2022/09/28 02:15:35;;;;;;;1999.90;999.90;;;9.80;99.90;;;;;;5072505;28;20473;-65
2022/09/28 02:18:02;;;;;;;1999.90;999.90;;;9.80;99.90;;;;;;5072786;28;20504;-64
2022/09/28 02:20:30;;;;;;;1999.90;999.90;;;9.80;99.90;;;;;;5072613;28;20435;-67
2022/09/28 02:23:01;;;;;;;1999.90;999.90;;;9.80;99.90;;;;;;5071969;28;20442;-62
2022/09/28 02:25:33;;;;;;;1999.90;999.90;;;9.80;99.90;;;;;;5072069;28;20462;-62
2022/09/28 02:28:04;;;;;;;1999.90;999.90;;;9.90;99.90;;;;;;5072212;28;20451;-65
2022/09/28 02:30:32;;;;;;;1999.90;999.90;;;9.80;99.90;;;;;;5072369;28;20482;-64
2022/09/28 02:33:03;;;;;;;1999.90;999.90;;;9.90;99.90;;;;;;5071928;28;20447;-63
2022/09/28 02:35:30;;;;;;;1999.90;999.90;;;10.00;99.90;;;;;;5071842;28;20462;-66
2022/09/28 02:37:57;;;;;;;1999.90;999.90;;;10.00;99.90;;;;;;5071992;28;20439;-64
2022/09/28 02:40:26;;;;;;;1999.90;999.90;;;10.00;99.90;;;;;;5071866;28;20913;-65
2022/09/28 02:42:59;;;;;;;1999.90;999.90;;;10.00;99.90;;;;;;5071422;28;20453;-67
2022/09/28 02:45:47;;;;;;;1999.90;999.90;;;10.00;99.90;;;;;;5071938;28;20455;-61
2022/09/28 02:48:29;;;;;;;1999.90;999.90;;;10.00;99.90;;;;;;5071822;28;20447;-64
2022/09/28 02:51:05;;;;;;;1999.90;999.90;;;10.10;99.90;;;;;;5071621;28;20548;-67
2022/09/28 02:54:11;;;;;;;1999.90;999.90;;;10.10;99.90;;;;;;5071602;28;20435;-64
2022/09/28 02:56:58;;;;;;;1999.90;999.90;;;10.10;99.90;;;;;;5070296;28;20454;-64
2022/09/28 02:59:39;;;;;;;1999.90;999.90;;;10.10;99.90;;;;;;5071421;28;20435;-63
2022/09/28 03:02:18;;;;;;;1999.90;999.90;;;10.10;99.90;;;;;;5070956;28;20951;-66
2022/09/28 03:04:56;;;;;;;1999.90;999.90;;;10.10;99.90;;;;;;5071587;28;20463;-64
2022/09/28 03:07:27;;;;;;;1999.90;999.90;;;10.20;99.90;;;;;;5071430;28;20438;-64
2022/09/28 03:10:13;;;;;;;1999.90;999.90;;;10.10;99.90;;;;;;5071375;28;20474;-66
2022/09/28 03:12:41;;;;;;;1999.90;999.90;;;10.20;99.90;;;;;;5070624;28;20455;-64
2022/09/28 03:15:10;;;;;;;1999.90;999.90;;;10.20;99.90;;;;;;5071223;28;20542;-65
2022/09/28 03:17:38;;;;;;;1999.90;999.90;;;10.20;99.90;;;;;;5070873;28;20431;-65
2022/09/28 03:20:06;;;;;;;1999.90;999.90;;;10.20;99.90;;;;;;5070947;28;20431;-65
2022/09/28 03:22:33;;;;;;;1999.90;999.90;;;10.20;99.90;;;;;;5069933;28;20488;-65
2022/09/28 03:25:00;;;;;;;1999.90;999.90;;;10.20;99.90;;;;;;5071352;28;20463;-64
2022/09/28 03:27:27;;;;;;;1999.90;999.90;;;10.20;99.90;;;;;;5071052;28;20435;-64
2022/09/28 03:29:53;;;;;;;1999.90;999.90;;;10.20;99.90;;;;;;5070704;28;20475;-66
2022/09/28 03:32:20;;;;;;;1999.90;999.90;;;10.20;99.90;;;;;;5070878;28;20439;-66
2022/09/28 03:34:48;;;;;;;1999.90;999.90;;;10.20;99.90;;;;;;5070815;28;20467;-65
2022/09/28 03:37:15;;;;;;;1999.90;999.90;;;10.30;99.90;;;;;;5070901;28;20776;-65
2022/09/28 03:39:42;;;;;;;1999.90;999.90;;;10.20;99.90;;;;;;5070858;28;20459;-65
2022/09/28 03:42:08;;;;;;;1999.90;999.90;;;10.20;99.90;;;;;;5070590;28;20431;-65
2022/09/28 03:44:35;;;;;;;1999.90;999.90;;;10.30;99.90;;;;;;5070387;28;20451;-64
2022/09/28 03:47:02;;;;;;;1999.90;999.90;;;10.30;99.90;;;;;;5070728;28;20447;-64
2022/09/28 03:49:28;;;;;;;1999.90;999.90;;;10.30;99.90;;;;;;5070373;28;20502;-64
2022/09/28 03:51:56;;;;;;;1999.90;999.90;;;10.30;99.90;;;;;;5070573;28;20813;-64
2022/09/28 03:54:23;;;;;;;1999.90;999.90;;;10.20;99.90;;;;;;5070479;28;20470;-65
2022/09/28 03:56:50;;;;;;;1999.90;999.90;;;10.10;99.90;;;;;;5070402;28;20510;-63
2022/09/28 03:59:17;;;;;;;1999.90;999.90;;;10.00;99.90;;;;;;5070172;28;20832;-67
2022/09/28 04:01:44;;;;;;;1999.90;999.90;;;10.00;99.90;;;;;;5070377;28;20858;-65
2022/09/28 04:04:11;;;;;;;1999.90;999.90;;;9.90;99.90;;;;;;5070272;28;20459;-63
2022/09/28 04:06:38;;;;;;;1999.90;999.90;;;9.90;99.90;;;;;;5070152;28;20431;-64
2022/09/28 04:09:06;;;;;;;1999.90;999.90;;;9.90;99.90;;;;;;5070249;28;20482;-66
2022/09/28 04:11:33;;;;;;;1999.90;999.90;;;9.80;99.90;;;;;;5069779;28;20439;-65
2022/09/28 04:14:00;;;;;;;1999.90;999.90;;;9.80;99.90;;;;;;5069827;28;20829;-63
2022/09/28 04:16:27;;;;;;;1999.90;999.90;;;9.80;99.90;;;;;;5070270;28;20500;-64
2022/09/28 04:18:54;;;;;;;1999.90;999.90;;;9.70;99.90;;;;;;5070217;28;20443;-65
2022/09/28 04:21:21;;;;;;;1999.90;999.90;;;9.70;99.90;;;;;;5069951;28;20450;-62
2022/09/28 04:23:48;;;;;;;1999.90;999.90;;;9.70;99.90;;;;;;5069844;28;20459;-66
2022/09/28 04:26:20;;;;;;;1999.90;999.90;;;9.70;99.90;;;;;;5069959;28;20438;-64
2022/09/28 04:31:38;;;;;;;1999.90;999.90;;;9.80;99.90;;;;;;5069545;28;20472;-64
2022/09/28 04:34:04;;;;;;;1999.90;999.90;;;9.80;99.90;;;;;;5069421;28;20553;-64
2022/09/28 04:36:31;;;;;;;1999.90;999.90;;;9.70;99.90;;;;;;5069017;28;20792;-70
2022/09/28 04:38:58;;;;;;;1999.90;999.90;;;9.80;99.90;;;;;;5070905;28;20435;-61
2022/09/28 04:41:27;;;;;;;1999.90;999.90;;;9.70;99.90;;;;;;5057410;28;22106;-66
2022/09/28 04:43:53;;;;;;;1999.90;999.90;;;9.70;99.90;;;;;;5049168;28;20459;-66
2022/09/28 04:46:20;;;;;;;1999.90;999.90;;;9.70;99.90;;;;;;5050316;28;20443;-65
2022/09/28 04:48:47;;;;;;;1999.90;999.90;;;9.70;99.90;;;;;;5050958;28;20791;-66
2022/09/28 04:51:14;;;;;;;1999.90;999.90;;;9.70;99.90;;;;;;5051015;28;20510;-65
2022/09/28 04:53:40;;;;;;;1999.90;999.90;;;9.70;99.90;;;;;;5051218;28;20816;-66
2022/09/28 04:56:10;;;;;;;1999.90;999.90;;;9.70;99.90;;;;;;5051014;28;20474;-66
2022/09/28 04:58:39;;;;;;;1999.90;999.90;;;9.70;99.90;;;;;;5052260;28;20520;-65
2022/09/28 05:01:09;;;;;;;1999.90;999.90;;;9.70;99.90;;;;;;5053989;28;20932;-65
2022/09/28 05:03:36;;;;;;;1999.90;999.90;;;9.70;99.90;;;;;;5054155;28;20440;-64
2022/09/28 05:06:03;;;;;;;1999.90;999.90;;;9.70;99.90;;;;;;5055113;28;20483;-65
2022/09/28 05:08:30;;;;;;;1999.90;999.90;;;9.70;99.90;;;;;;5056877;28;20841;-65
2022/09/28 05:10:58;;;;;;;1999.90;999.90;;;9.70;99.90;;;;;;5058866;28;20479;-65
2022/09/28 05:13:25;;;;;;;1999.90;999.90;;;9.60;99.90;;;;;;5056524;28;20444;-64
2022/09/28 05:15:55;;;;;;;1999.90;999.90;;;9.70;99.90;;;;;;5058576;28;20444;-66
2022/09/28 05:18:22;;;;;;;1999.90;999.90;;;9.70;99.90;;;;;;5054250;28;20451;-67
2022/09/28 05:20:49;;;;;;;1999.90;999.90;;;9.70;99.90;;;;;;5053181;28;20440;-66
2022/09/28 05:23:16;;;;;;;1999.90;999.90;;;9.70;99.90;;;;;;5052799;28;20440;-65
2022/09/28 05:25:44;;;;;;;1999.90;999.90;;;9.70;99.90;;;;;;5054077;28;20456;-65
2022/09/28 05:28:11;;;;;;;1999.90;999.90;;;9.70;99.90;;;;;;5050556;28;20937;-66
2022/09/28 05:30:38;;;;;;;1999.90;999.90;;;9.70;99.90;;;;;;5052235;28;20480;-65
2022/09/28 05:33:06;;;;;;;1999.90;999.90;;;9.70;99.90;;;;;;5052871;28;20459;-65
2022/09/28 05:35:33;;;;;;;1999.90;999.90;;;9.70;99.90;;;;;;5055631;28;20460;-66
2022/09/28 05:38:04;;;;;;;1999.90;999.90;;;9.70;99.90;;;;;;5055393;28;20827;-65
2022/09/28 05:40:31;;;;;;;1999.90;999.90;;;9.60;99.90;;;;;;5055384;28;20436;-65
2022/09/28 05:42:59;;;;;;;1999.90;999.90;;;9.70;99.90;;;;;;5055977;28;20528;-65
2022/09/28 05:45:26;;;;;;;1999.90;999.90;;;9.60;99.90;;;;;;5057638;28;20498;-66
2022/09/28 05:47:53;;;;;;;1999.90;999.90;;;9.60;99.90;;;;;;5059441;28;20506;-66
2022/09/28 05:50:21;;;;;;;1999.90;999.90;;;9.60;99.90;;;;;;5059647;28;20498;-65
2022/09/28 05:52:57;;;;;;;1999.90;999.90;;;9.60;99.90;;;;;;5058458;28;20451;-65
2022/09/28 05:55:24;;;;;;;1999.90;999.90;;;9.60;99.90;;;;;;5057503;28;20455;-65
2022/09/28 05:57:51;;;;;;;1999.90;999.90;;;9.60;99.90;;;;;;5057373;28;20790;-64
2022/09/28 06:00:18;;;;;;;1999.90;999.90;;;9.60;99.90;;;;;;5057023;28;20443;-65
2022/09/28 06:02:45;;;;;;;1999.90;999.90;;;9.60;99.90;;;;;;5056525;28;20459;-66
2022/09/28 06:05:11;;;;;;;1999.90;999.90;;;9.60;99.90;;;;;;5057026;28;20479;-64
2022/09/28 06:07:39;;;;;;;1999.90;999.90;;;9.60;99.90;;;;;;5057804;28;20440;-66
2022/09/28 06:10:07;;;;;;;1999.90;999.90;;;9.60;99.90;;;;;;5057251;28;20479;-64
2022/09/28 06:12:34;;;;;;;1999.90;999.90;;;9.60;99.90;;;;;;5056346;28;20814;-64
2022/09/28 06:15:00;;;;;;;1999.90;999.90;;;9.60;99.90;;;;;;5056183;28;20459;-64
2022/09/28 06:17:28;;;;;;;1999.90;999.90;;;9.60;99.90;;;;;;5056108;28;20528;-64
2022/09/28 06:19:55;;;;;;;1999.90;999.90;;;9.60;99.90;;;;;;5055646;28;20451;-64
2022/09/28 06:22:22;;;;;;;1999.90;999.90;;;9.70;99.90;;;;;;5055284;28;20814;-65
2022/09/28 06:24:50;;;;;;;1999.90;999.90;;;9.60;99.90;;;;;;5054665;28;21004;-65
2022/09/28 06:27:16;;;;;;;1999.90;999.90;;;9.70;99.90;;;;;;5054643;28;20443;-65
2022/09/28 06:29:45;;;;;;;1999.90;999.90;;;9.70;99.90;;;;;;5054317;28;20443;-65
2022/09/28 06:32:12;;;;;;;1999.90;999.90;;;9.80;99.90;;;;;;5053871;28;20566;-65
2022/09/28 06:34:40;;;;;;;1999.90;999.90;;;9.80;99.90;;;;;;5054699;28;20464;-66
2022/09/28 06:37:07;;;;;;;1999.90;999.90;;;9.80;99.90;;;;;;5053834;28;20436;-65
2022/09/28 06:39:34;;;;;;;1999.90;999.90;;;9.80;99.90;;;;;;5054255;28;20447;-65
2022/09/28 06:42:02;;;;;;;1999.90;999.90;;;9.80;99.90;;;;;;5054561;28;20440;-65
2022/09/28 06:44:31;;;;;;;1999.90;999.90;;;9.80;99.90;;;;;;5054715;28;20472;-65
2022/09/28 06:46:57;;;;;;;1999.90;999.90;;;9.90;99.90;;;;;;5054689;28;20459;-65
2022/09/28 06:49:26;;;;;;;1999.90;999.90;;;9.90;99.90;;;;;;5054761;28;20456;-64
2022/09/28 06:51:53;;;;;;;1999.90;999.90;;;9.90;99.90;;;;;;5053851;28;20483;-65
2022/09/28 06:54:24;;;;;;;1999.90;999.90;;;9.90;99.90;;;;;;5054082;28;20857;-65
2022/09/28 06:56:51;;;;;;;1999.90;999.90;;;9.90;99.90;;;;;;5053817;28;20436;-64
2022/09/28 06:59:20;;;;;;;1999.90;999.90;;;10.00;99.90;;;;;;5054901;28;21001;-65
2022/09/28 07:01:47;;;;;;;1999.90;999.90;;;10.00;99.90;;;;;;5054359;28;20922;-65
2022/09/28 07:04:13;;;;;;;1999.90;999.90;;;10.10;99.90;;;;;;5055192;28;20499;-65
2022/09/28 07:06:45;;;;;;;1999.90;999.90;;;10.10;99.90;;;;;;5055735;28;20444;-64
2022/09/28 07:09:12;;;;;;;1999.90;999.90;;;10.20;99.90;;;;;;5054721;28;20452;-64
2022/09/28 07:11:39;;;;;;;1999.90;999.90;;;10.30;99.90;;;;;;5055059;28;20494;-65
2022/09/28 07:14:08;;;;;;;1999.90;999.90;;;10.40;99.90;;;;;;5054846;28;20479;-64
2022/09/28 07:16:37;;;;;;;1999.90;999.90;;;10.40;99.90;;;;;;5055154;28;20456;-65
2022/09/28 07:19:05;;;;;;;1999.90;999.90;;;10.40;99.90;;;;;;5054978;28;20464;-64
2022/09/28 07:21:32;;;;;;;1999.90;999.90;;;10.50;99.90;;;;;;5054776;28;20510;-64
2022/09/28 07:23:59;;;;;;;1999.90;999.90;;;10.50;99.90;;;;;;5054497;28;20471;-64
2022/09/28 07:26:26;;;;;;;1999.90;999.90;;;10.50;99.90;;;;;;5055366;28;20800;-65
2022/09/28 07:28:54;;;;;;;1999.90;999.90;;;10.50;99.90;;;;;;5054953;28;20452;-65
2022/09/28 07:31:24;;;;;;;1999.90;999.90;;;10.50;99.90;;;;;;5054881;28;20488;-64
2022/09/28 07:33:52;;;;;;;1999.90;999.90;;;10.50;99.90;;;;;;5054536;28;20829;-65
2022/09/28 07:36:21;;;;;;;1999.90;999.90;;;10.60;99.90;;;;;;5054256;28;20886;-64
2022/09/28 07:38:48;;;;;;;1999.90;999.90;;;10.60;99.90;;;;;;5054400;28;20460;-65
2022/09/28 07:41:16;;;;;;;1999.90;999.90;;;10.60;99.90;;;;;;5054150;28;20809;-65
2022/09/28 07:43:43;;;;;;;1999.90;999.90;;;10.60;99.90;;;;;;5053990;28;20643;-64
2022/09/28 07:46:11;;;;;;;1999.90;999.90;;;10.60;99.90;;;;;;5054069;28;20527;-64
2022/09/28 07:48:42;;;;;;;1999.90;999.90;;;10.60;99.90;;;;;;5054540;28;20538;-65
2022/09/28 07:51:10;;;;;;;1999.90;999.90;;;10.60;99.90;;;;;;5053100;28;20475;-65
2022/09/28 07:53:38;;;;;;;1999.90;999.90;;;10.60;99.90;;;;;;5053418;28;20470;-64
2022/09/28 07:56:07;;;;;;;1999.90;999.90;;;10.70;99.90;;;;;;5053463;28;20436;-64
2022/09/28 07:58:35;;;;;;;1999.90;999.90;;;10.70;99.90;;;;;;5053483;28;20533;-64
2022/09/28 08:01:07;;;;;;;1999.90;999.90;;;10.80;99.90;;;;;;5053432;28;20523;-65
2022/09/28 08:03:35;;;;;;;1999.90;999.90;;;10.90;99.90;;;;;;5053423;28;20300;-64
2022/09/28 08:06:04;;;;;;;1999.90;999.90;;;10.90;99.90;;;;;;5053344;28;20480;-65
2022/09/28 08:08:34;;;;;;;1999.90;999.90;;;11.00;99.90;;;;;;5051966;28;20459;-65
2022/09/28 08:11:01;;;;;;;1999.90;999.90;;;11.00;99.90;;;;;;5052445;28;20503;-65
2022/09/28 08:13:29;;;;;;;1999.90;999.90;;;11.10;99.90;;;;;;5051631;28;20515;-65
2022/09/28 08:16:01;;;;;;;1999.90;999.90;;;11.10;99.90;;;;;;5052225;28;20491;-64
2022/09/28 08:18:28;;;;;;;1999.90;999.90;;;11.10;99.90;;;;;;5051877;28;20478;-66
2022/09/28 08:23:40;;;;;;;1999.90;999.90;;;11.30;99.90;;;;;;5051664;28;20431;-65
2022/09/28 08:26:07;;;;;;;1999.90;999.90;;;11.40;99.90;;;;;;5051575;28;20437;-65
2022/09/28 08:28:35;;;;;;;1999.90;999.90;;;11.40;99.90;;;;;;5051452;28;20527;-65
2022/09/28 08:31:02;;;;;;;1999.90;999.90;;;11.40;99.90;;;;;;5051021;28;20859;-64
2022/09/28 08:33:29;;;;;;;1999.90;999.90;;;11.50;99.90;;;;;;5050846;28;20872;-64
2022/09/28 08:35:57;;;;;;;1999.90;999.90;;;11.50;99.90;;;;;;5051050;28;20433;-64
2022/09/28 08:38:24;;;;;;;1999.90;999.90;;;11.50;99.90;;;;;;5050657;28;20443;-64
2022/09/28 08:41:03;;;;;;;1999.90;999.90;;;11.50;99.90;;;;;;5050406;28;20535;-65
2022/09/28 08:43:51;;;;;;;1999.90;999.90;;;11.60;99.90;;;;;;5050298;28;21020;-65
2022/09/28 08:46:21;;;;;;;1999.90;999.90;;;11.50;99.90;;;;;;5050725;28;20432;-64
2022/09/28 08:48:53;;;;;;;1999.90;999.90;;;11.50;99.90;;;;;;5050681;28;20448;-64
2022/09/28 08:51:24;;;;;;;1999.90;999.90;;;11.70;99.90;;;;;;5050456;28;20514;-64
2022/09/28 08:53:57;;;;;;;1999.90;999.90;;;11.70;99.90;;;;;;5050471;28;20476;-65
2022/09/28 08:56:32;;;;;;;1999.90;999.90;;;11.80;99.90;;;;;;5050743;28;20448;-64
2022/09/28 08:59:02;;;;;;;1999.90;999.90;;;12.00;99.90;;;;;;5050661;28;20465;-65
2022/09/28 09:01:35;;;;;;;1999.90;999.90;;;12.20;99.90;;;;;;5050574;28;21030;-65
2022/09/28 09:04:05;;;;;;;1999.90;999.90;;;12.40;99.90;;;;;;5050695;28;20480;-65
2022/09/28 09:06:44;;;;;;;1999.90;999.90;;;12.50;99.90;;;;;;5050589;28;20444;-65
2022/09/28 09:09:20;;;;;;;1999.90;999.90;;;12.50;99.90;;;;;;5050639;28;20484;-65
2022/09/28 09:11:57;;;;;;;1999.90;999.90;;;12.60;99.90;;;;;;5050135;28;20972;-65
2022/09/28 09:14:54;;;;;;;1999.90;999.90;;;12.50;99.90;;;;;;5050459;28;20864;-65
2022/09/28 09:17:33;;;;;;;1999.90;999.90;;;12.60;99.90;;;;;;5044270;28;20466;-65
2022/09/28 09:20:11;;;;;;;1999.90;999.90;;;12.50;99.90;;;;;;5052222;28;20435;-65
2022/09/28 09:22:40;;;;;;;1999.90;999.90;;;12.50;99.90;;;;;;5054354;28;20439;-65
2022/09/28 09:25:20;;;;;;;1999.90;999.90;;;12.50;99.90;;;;;;5053917;28;20452;-64
2022/09/28 09:28:13;;;;;;;1999.90;999.90;;;12.60;99.90;;;;;;5053881;28;20494;-65
2022/09/28 09:30:48;;;;;;;1999.90;999.90;;;12.70;99.90;;;;;;5043045;28;20837;-65
2022/09/28 09:33:41;;;;;;;1999.90;999.90;;;12.80;99.90;;;;;;5053787;28;20448;-65
2022/09/28 09:36:22;;;;;;;1999.90;999.90;;;13.10;99.90;;;;;;5053805;28;20459;-65
2022/09/28 09:39:00;;;;;;;1999.90;999.90;;;13.10;99.90;;;;;;5053769;28;20458;-65
2022/09/28 09:41:40;;;;;;;1999.90;999.90;;;13.30;99.90;;;;;;5053253;28;20452;-66
2022/09/28 09:44:32;;;;;;;1999.90;999.90;;;13.10;99.90;;;;;;5053552;28;20470;-65
2022/09/28 09:47:06;;;;;;;1999.90;999.90;;;12.90;99.90;;;;;;5053544;28;20529;-65
2022/09/28 09:49:37;;;;;;;1999.90;999.90;;;12.80;99.90;;;;;;5053411;28;20491;-65
2022/09/28 09:52:14;;;;;;;1999.90;999.90;;;12.70;99.90;;;;;;5053130;28;20479;-65
2022/09/28 09:54:47;;;;;;;1999.90;999.90;;;12.80;99.90;;;;;;5053270;28;20475;-64
2022/09/28 09:57:17;;;;;;;1999.90;999.90;;;12.90;99.90;;;;;;5053308;28;20535;-65
2022/09/28 09:59:47;;;;;;;1999.90;999.90;;;13.10;99.90;;;;;;5053171;28;20451;-66
2022/09/28 10:02:23;;;;;;;1999.90;999.90;;;13.10;99.90;;;;;;5052633;28;20436;-64
2022/09/28 10:04:53;;;;;;;1999.90;999.90;;;13.10;99.90;;;;;;5052988;28;20467;-65
2022/09/28 10:07:24;;;;;;;1999.90;999.90;;;13.20;99.90;;;;;;5052896;28;20464;-65
2022/09/28 10:09:57;;;;;;;1999.90;999.90;;;13.10;99.90;;;;;;5053021;28;20881;-65
2022/09/28 10:12:25;;;;;;;1999.90;999.90;;;13.10;99.90;;;;;;5052268;28;20842;-66
2022/09/28 10:14:54;;;;;;;1999.90;999.90;;;13.20;99.90;;;;;;5052981;28;20456;-65
2022/09/28 10:17:26;;;;;;;1999.90;999.90;;;13.30;99.90;;;;;;5052916;28;20535;-64
2022/09/28 10:19:55;;;;;;;1999.90;999.90;;;13.30;99.90;;;;;;5052724;28;20520;-66
2022/09/28 10:22:26;;;;;;;1999.90;999.90;;;13.30;99.90;;;;;;5052940;28;20454;-64
2022/09/28 10:24:57;;;;;;;1999.90;999.90;;;13.20;99.90;;;;;;5052671;28;20974;-65
2022/09/28 10:27:26;;;;;;;1999.90;999.90;;;13.10;99.90;;;;;;5052952;28;20546;-64
2022/09/28 10:29:57;;;;;;;1999.90;999.90;;;13.10;99.90;;;;;;5052664;28;20685;-65
2022/09/28 10:32:26;;;;;;;1999.90;999.90;;;13.00;99.90;;;;;;5051554;28;20592;-65
2022/09/28 10:34:54;;;;;;;1999.90;999.90;;;13.10;99.90;;;;;;5052366;28;20510;-65
2022/09/28 10:37:22;;;;;;;1999.90;999.90;;;13.10;99.90;;;;;;5052097;28;20451;-64
2022/09/28 10:39:53;;;;;;;1999.90;999.90;;;13.20;99.90;;;;;;5052153;28;20988;-65
2022/09/28 10:42:22;;;;;;;1999.90;999.90;;;13.30;99.90;;;;;;5052003;28;20443;-66
2022/09/28 10:44:53;;;;;;;1999.90;999.90;;;13.40;99.90;;;;;;5052239;28;20474;-66
2022/09/28 10:47:24;;;;;;;1999.90;999.90;;;13.60;99.90;;;;;;5052467;28;21014;-65
2022/09/28 10:49:53;;;;;;;1999.90;999.90;;;13.70;99.90;;;;;;5052038;28;20914;-65
2022/09/28 10:52:36;;;;;;;1999.90;999.90;;;13.80;99.90;;;;;;5051639;28;20482;-65
2022/09/28 10:55:23;;;;;;;1999.90;999.90;;;14.00;99.90;;;;;;5050406;28;21008;-65
2022/09/28 10:57:51;;;;;;;1999.90;999.90;;;14.00;99.90;;;;;;5052277;28;20448;-66
2022/09/28 11:00:31;;;;;;;1999.90;999.90;;;14.00;99.90;;;;;;5052126;28;20946;-65
2022/09/28 11:03:00;;;;;;;1999.90;999.90;;;14.10;99.90;;;;;;5051961;28;20444;-65
2022/09/28 11:05:27;;;;;;;1999.90;999.90;;;14.00;99.90;;;;;;5052204;28;20508;-66
2022/09/28 11:07:56;;;;;;;1999.90;999.90;;;14.10;99.90;;;;;;5051899;28;20456;-64
2022/09/28 11:10:26;;;;;;;1999.90;999.90;;;14.10;99.90;;;;;;5051668;28;20535;-65
2022/09/28 11:12:54;;;;;;;1999.90;999.90;;;14.10;99.90;;;;;;5051306;28;20472;-65
2022/09/28 11:15:24;;;;;;;1999.90;999.90;;;14.00;99.90;;;;;;5051778;28;20526;-66
2022/09/28 11:17:51;;;;;;;1999.90;999.90;;;14.30;99.90;;;;;;5051535;28;20547;-65
2022/09/28 11:20:33;;;;;;;1999.90;999.90;;;14.30;99.90;;;;;;5051779;28;20444;-65
2022/09/28 11:23:16;;;;;;;1999.90;999.90;;;13.90;99.90;;;;;;5051466;28;20458;-65
2022/09/28 11:25:44;;;;;;;1999.90;999.90;;;13.80;99.90;;;;;;5051708;28;20474;-65
2022/09/28 11:28:22;;;;;;;1999.90;999.90;;;13.90;99.90;;;;;;5051536;28;20456;-65
2022/09/28 11:30:52;;;;;;;1999.90;999.90;;;13.70;99.90;;;;;;5051210;28;20539;-65
2022/09/28 11:33:24;;;;;;;1999.90;999.90;;;13.60;99.90;;;;;;5051100;28;20472;-64
2022/09/28 11:36:02;;;;;;;1999.90;999.90;;;14.10;99.90;;;;;;5051582;28;20846;-67
2022/09/28 11:38:33;;;;;;;1999.90;999.90;;;14.70;99.90;;;;;;5051239;28;20816;-65
2022/09/28 11:41:37;;;;;;;1999.90;999.90;;;14.80;99.90;;;;;;5051217;28;20460;-65
2022/09/28 11:44:24;;;;;;;1999.90;999.90;;;14.80;99.90;;;;;;5018338;28;20981;-65
2022/09/28 11:47:03;;;;;;;1999.90;999.90;;;15.20;99.90;;;;;;5051315;28;20804;-65
2022/09/28 11:49:33;;;;;;;1999.90;999.90;;;15.30;99.90;;;;;;5048614;28;20454;-64
2022/09/28 11:52:06;;;;;;;1999.90;999.90;;;15.40;99.90;;;;;;5046115;28;20480;-64
2022/09/28 11:54:40;;;;;;;1999.90;999.90;;;15.60;99.90;;;;;;5047935;28;20467;-65
2022/09/28 11:57:14;;;;;;;1999.90;999.90;;;15.90;99.90;;;;;;5050339;28;20444;-66
2022/09/28 11:59:51;;;;;;;1999.90;999.90;;;15.80;99.90;;;;;;5050916;28;20447;-65
2022/09/28 12:02:24;;;;;;;1999.90;999.90;;;15.90;99.90;;;;;;5049695;28;20439;-64
2022/09/28 12:04:56;;;;;;;1999.90;999.90;;;16.50;99.90;;;;;;5048076;28;20490;-64
2022/09/28 12:07:30;;;;;;;1999.90;999.90;;;16.90;99.90;;;;;;5049428;28;20957;-65
2022/09/28 12:10:03;;;;;;;1999.90;999.90;;;16.60;99.90;;;;;;5049724;28;20458;-65
2022/09/28 12:12:33;;;;;;;1999.90;999.90;;;16.30;99.90;;;;;;5050127;28;20479;-66
2022/09/28 12:15:05;;;;;;;1999.90;999.90;;;16.00;99.90;;;;;;5050475;28;20468;-65
2022/09/28 12:17:38;;;;;;;1999.90;999.90;;;15.90;99.90;;;;;;5049971;28;20448;-66
2022/09/28 12:20:16;;;;;;;1999.90;999.90;;;15.80;99.90;;;;;;5050571;28;20790;-65
2022/09/28 12:22:49;;;;;;;1999.90;999.90;;;15.80;99.90;;;;;;5050143;28;20451;-65
2022/09/28 12:25:21;;;;;;;1999.90;999.90;;;15.70;99.90;;;;;;5050230;28;20502;-66
2022/09/28 12:27:51;;;;;;;1999.90;999.90;;;15.70;99.90;;;;;;5050344;28;20455;-65